sensor_id;sensor_type;location;lat;lon;timestamp;pressure;altitude;pressure_sealevel;temperature;humidity
36304;BME280;22335;49.800;8.596;2023-03-04T00:02:53;101288.19;;;20.48;39.68
36304;BME280;22335;49.800;8.596;2023-03-04T00:09:37;101295.38;;;20.49;39.50
36304;BME280;22335;49.800;8.596;2023-03-04T00:16:22;101215.28;;;19.95;39.70
36304;BME280;22335;49.800;8.596;2023-03-04T00:23:07;101261.78;;;20.16;39.70
36304;BME280;22335;49.800;8.596;2023-03-04T00:29:51;101296.84;;;20.46;39.57
36304;BME280;22335;49.800;8.596;2023-03-04T00:36:36;101301.91;;;20.53;39.43
36304;BME280;22335;49.800;8.596;2023-03-04T00:43:20;101308.44;;;20.48;39.53
36304;BME280;22335;49.800;8.596;2023-03-04T00:50:04;101301.75;;;20.49;39.64
36304;BME280;22335;49.800;8.596;2023-03-04T00:56:49;101302.25;;;20.52;39.42
36304;BME280;22335;49.800;8.596;2023-03-04T01:03:33;101303.56;;;20.45;39.39
36304;BME280;22335;49.800;8.596;2023-03-04T01:10:18;101299.50;;;20.52;39.45
36304;BME280;22335;49.800;8.596;2023-03-04T01:17:03;101074.00;;;19.12;39.42
36304;BME280;22335;49.800;8.596;2023-03-04T01:23:47;101287.53;;;20.42;39.55
36304;BME280;22335;49.800;8.596;2023-03-04T01:30:31;101278.72;;;20.40;39.51
36304;BME280;22335;49.800;8.596;2023-03-04T01:37:17;101281.31;;;20.45;39.55
36304;BME280;22335;49.800;8.596;2023-03-04T01:44:01;101271.69;;;20.43;39.37
36304;BME280;22335;49.800;8.596;2023-03-04T01:50:45;101228.13;;;20.17;39.47
36304;BME280;22335;49.800;8.596;2023-03-04T01:57:34;101210.66;;;20.08;39.31
36304;BME280;22335;49.800;8.596;2023-03-04T02:04:21;101263.03;;;20.44;39.22
36304;BME280;22335;49.800;8.596;2023-03-04T02:11:06;101253.19;;;20.47;39.35
36304;BME280;22335;49.800;8.596;2023-03-04T02:17:52;101237.88;;;20.41;39.28
36304;BME280;22335;49.800;8.596;2023-03-04T02:24:38;101234.25;;;20.40;39.34
36304;BME280;22335;49.800;8.596;2023-03-04T02:31:29;101231.97;;;20.42;39.29
36304;BME280;22335;49.800;8.596;2023-03-04T02:38:14;101218.63;;;20.27;39.27
36304;BME280;22335;49.800;8.596;2023-03-04T02:44:59;101158.59;;;19.96;39.49
36304;BME280;22335;49.800;8.596;2023-03-04T02:51:45;101236.56;;;20.38;39.38
36304;BME280;22335;49.800;8.596;2023-03-04T02:58:30;101189.53;;;20.24;39.22
36304;BME280;22335;49.800;8.596;2023-03-04T03:05:14;101227.75;;;20.36;39.26
36304;BME280;22335;49.800;8.596;2023-03-04T03:11:59;101231.97;;;20.42;39.22
36304;BME280;22335;49.800;8.596;2023-03-04T03:18:45;101214.53;;;20.24;39.28
36304;BME280;22335;49.800;8.596;2023-03-04T03:25:29;101224.66;;;20.38;39.18
36304;BME280;22335;49.800;8.596;2023-03-04T03:32:14;101217.78;;;20.35;39.17
36304;BME280;22335;49.800;8.596;2023-03-04T03:38:58;101218.22;;;20.46;38.99
36304;BME280;22335;49.800;8.596;2023-03-04T04:00:47;101204.91;;;20.22;39.30
36304;BME280;22335;49.800;8.596;2023-03-04T04:07:31;101202.06;;;20.39;39.21
36304;BME280;22335;49.800;8.596;2023-03-04T04:14:15;101205.38;;;20.33;39.28
36304;BME280;22335;49.800;8.596;2023-03-04T04:21:00;101203.38;;;20.42;38.86
36304;BME280;22335;49.800;8.596;2023-03-04T04:27:43;101210.13;;;20.32;39.22
36304;BME280;22335;49.800;8.596;2023-03-04T04:34:27;101218.25;;;20.37;39.09
36304;BME280;22335;49.800;8.596;2023-03-04T04:41:18;101219.56;;;20.31;39.26
36304;BME280;22335;49.800;8.596;2023-03-04T04:48:03;101218.78;;;20.31;39.15
36304;BME280;22335;49.800;8.596;2023-03-04T04:54:46;101221.91;;;20.29;39.06
36304;BME280;22335;49.800;8.596;2023-03-04T05:01:31;101217.00;;;20.26;39.18
36304;BME280;22335;49.800;8.596;2023-03-04T05:08:15;101206.69;;;20.26;39.17
36304;BME280;22335;49.800;8.596;2023-03-04T05:14:59;101162.19;;;19.97;39.08
36304;BME280;22335;49.800;8.596;2023-03-04T05:21:44;101215.66;;;20.32;39.05
36304;BME280;22335;49.800;8.596;2023-03-04T05:28:29;101201.00;;;20.23;39.18
36304;BME280;22335;49.800;8.596;2023-03-04T05:35:12;101200.19;;;20.22;39.21
36304;BME280;22335;49.800;8.596;2023-03-04T05:41:57;101193.13;;;20.25;39.19
36304;BME280;22335;49.800;8.596;2023-03-04T05:48:41;101196.88;;;20.29;39.16
36304;BME280;22335;49.800;8.596;2023-03-04T05:55:25;101207.69;;;20.22;39.25
36304;BME280;22335;49.800;8.596;2023-03-04T06:02:11;101203.94;;;20.18;39.33
36304;BME280;22335;49.800;8.596;2023-03-04T06:08:55;101209.34;;;20.23;39.25
36304;BME280;22335;49.800;8.596;2023-03-04T06:15:39;101210.31;;;20.18;39.33
36304;BME280;22335;49.800;8.596;2023-03-04T06:22:24;101224.69;;;20.20;39.28
36304;BME280;22335;49.800;8.596;2023-03-04T06:29:08;101239.38;;;20.30;39.10
36304;BME280;22335;49.800;8.596;2023-03-04T06:35:53;101232.84;;;20.25;39.11
36304;BME280;22335;49.800;8.596;2023-03-04T06:42:39;101234.19;;;20.19;38.96
36304;BME280;22335;49.800;8.596;2023-03-04T06:49:23;101252.25;;;20.34;39.00
36304;BME280;22335;49.800;8.596;2023-03-04T06:56:09;101259.78;;;20.25;39.25
36304;BME280;22335;49.800;8.596;2023-03-04T07:02:56;101254.25;;;20.25;39.15
36304;BME280;22335;49.800;8.596;2023-03-04T07:09:40;101252.91;;;20.31;39.12
36304;BME280;22335;49.800;8.596;2023-03-04T07:16:24;101250.50;;;20.12;39.14
36304;BME280;22335;49.800;8.596;2023-03-04T07:23:09;101281.03;;;20.30;39.02
36304;BME280;22335;49.800;8.596;2023-03-04T07:29:53;101271.41;;;20.27;39.17
36304;BME280;22335;49.800;8.596;2023-03-04T07:36:36;101273.38;;;20.18;39.74
36304;BME280;22335;49.800;8.596;2023-03-04T07:43:21;101272.72;;;20.21;39.63
36304;BME280;22335;49.800;8.596;2023-03-04T07:50:06;101283.19;;;20.24;39.59
36304;BME280;22335;49.800;8.596;2023-03-04T07:56:50;101289.66;;;20.45;39.60
36304;BME280;22335;49.800;8.596;2023-03-04T08:03:35;101190.16;;;19.74;39.82
36304;BME280;22335;49.800;8.596;2023-03-04T08:10:19;101280.56;;;20.27;40.16
36304;BME280;22335;49.800;8.596;2023-03-04T08:17:02;101289.66;;;20.45;40.19
36304;BME280;22335;49.800;8.596;2023-03-04T08:23:48;101297.66;;;20.56;40.40
36304;BME280;22335;49.800;8.596;2023-03-04T08:30:32;101304.53;;;20.49;40.82
36304;BME280;22335;49.800;8.596;2023-03-04T08:37:16;101306.16;;;20.59;40.40
36304;BME280;22335;49.800;8.596;2023-03-04T08:44:01;101305.47;;;20.62;40.40
36304;BME280;22335;49.800;8.596;2023-03-04T08:50:46;101305.19;;;20.46;39.87
36304;BME280;22335;49.800;8.596;2023-03-04T08:57:30;101278.53;;;20.45;39.88
36304;BME280;22335;49.800;8.596;2023-03-04T09:04:15;101316.47;;;20.59;40.19
36304;BME280;22335;49.800;8.596;2023-03-04T09:10:59;101313.22;;;20.57;40.28
36304;BME280;22335;49.800;8.596;2023-03-04T09:17:42;101310.38;;;20.65;40.36
36304;BME280;22335;49.800;8.596;2023-03-04T09:24:27;101298.69;;;20.89;39.45
36304;BME280;22335;49.800;8.596;2023-03-04T09:31:11;101301.09;;;20.61;40.20
36304;BME280;22335;49.800;8.596;2023-03-04T09:37:57;101297.84;;;20.50;40.51
36304;BME280;22335;49.800;8.596;2023-03-04T09:44:44;101240.69;;;20.23;40.60
36304;BME280;22335;49.800;8.596;2023-03-04T09:51:42;101297.63;;;20.64;40.39
36304;BME280;22335;49.800;8.596;2023-03-04T09:58:41;101296.56;;;20.86;40.00
36304;BME280;22335;49.800;8.596;2023-03-04T10:05:31;101296.44;;;20.83;39.27
36304;BME280;22335;49.800;8.596;2023-03-04T10:12:19;101196.56;;;20.22;39.86
36304;BME280;22335;49.800;8.596;2023-03-04T10:19:20;101272.78;;;20.68;39.86
36304;BME280;22335;49.800;8.596;2023-03-04T10:26:16;101292.56;;;20.75;40.11
36304;BME280;22335;49.800;8.596;2023-03-04T10:33:01;101295.25;;;20.84;39.88
36304;BME280;22335;49.800;8.596;2023-03-04T10:39:48;101288.97;;;20.66;40.22
36304;BME280;22335;49.800;8.596;2023-03-04T10:46:36;101286.94;;;20.84;40.07
36304;BME280;22335;49.800;8.596;2023-03-04T10:53:32;101290.22;;;20.77;40.08
36304;BME280;22335;49.800;8.596;2023-03-04T11:00:26;101277.38;;;20.64;40.32
36304;BME280;22335;49.800;8.596;2023-03-04T11:07:14;101261.88;;;20.54;40.53
36304;BME280;22335;49.800;8.596;2023-03-04T11:13:59;101258.91;;;20.59;40.35
36304;BME280;22335;49.800;8.596;2023-03-04T11:20:47;101254.19;;;20.60;40.42
36304;BME280;22335;49.800;8.596;2023-03-04T11:27:35;101240.56;;;20.67;40.11
36304;BME280;22335;49.800;8.596;2023-03-04T11:34:31;101240.28;;;20.60;39.17
36304;BME280;22335;49.800;8.596;2023-03-04T11:41:23;101233.22;;;20.62;39.53
36304;BME280;22335;49.800;8.596;2023-03-04T11:48:15;101226.22;;;20.56;39.88
36304;BME280;22335;49.800;8.596;2023-03-04T11:55:20;101221.16;;;20.49;40.09
36304;BME280;22335;49.800;8.596;2023-03-04T12:02:13;101211.72;;;20.42;40.07
36304;BME280;22335;49.800;8.596;2023-03-04T12:09:10;101080.47;;;19.68;39.85
36304;BME280;22335;49.800;8.596;2023-03-04T12:16:20;101155.00;;;20.34;39.58
36304;BME280;22335;49.800;8.596;2023-03-04T12:23:35;101199.97;;;20.75;39.75
36304;BME280;22335;49.800;8.596;2023-03-04T12:30:36;101133.66;;;20.26;40.19
36304;BME280;22335;49.800;8.596;2023-03-04T12:37:41;101186.16;;;20.87;40.03
36304;BME280;22335;49.800;8.596;2023-03-04T12:44:33;101131.66;;;20.35;40.60
36304;BME280;22335;49.800;8.596;2023-03-04T12:51:30;101176.88;;;20.83;40.61
36304;BME280;22335;49.800;8.596;2023-03-04T12:58:20;101165.25;;;20.81;40.97
36304;BME280;22335;49.800;8.596;2023-03-04T13:05:23;101168.97;;;20.93;41.03
36304;BME280;22335;49.800;8.596;2023-03-04T13:12:21;101158.38;;;21.08;41.03
36304;BME280;22335;49.800;8.596;2023-03-04T13:26:30;101144.66;;;21.03;41.17
36304;BME280;22335;49.800;8.596;2023-03-04T13:33:45;101131.66;;;20.94;41.31
36304;BME280;22335;49.800;8.596;2023-03-04T13:40:35;101133.13;;;20.92;41.15
36304;BME280;22335;49.800;8.596;2023-03-04T13:47:21;101121.13;;;21.00;41.38
36304;BME280;22335;49.800;8.596;2023-03-04T13:54:20;101123.16;;;20.91;41.63
36304;BME280;22335;49.800;8.596;2023-03-04T14:01:22;101063.53;;;20.59;41.46
36304;BME280;22335;49.800;8.596;2023-03-04T14:08:18;101103.34;;;20.92;41.57
36304;BME280;22335;49.800;8.596;2023-03-04T14:15:14;101089.56;;;20.96;41.50
36304;BME280;22335;49.800;8.596;2023-03-04T14:22:23;101088.78;;;20.95;41.42
36304;BME280;22335;49.800;8.596;2023-03-04T14:29:22;101084.81;;;20.96;41.32
36304;BME280;22335;49.800;8.596;2023-03-04T14:36:15;101073.69;;;20.96;41.18
36304;BME280;22335;49.800;8.596;2023-03-04T14:43:03;101076.72;;;20.91;41.67
36304;BME280;22335;49.800;8.596;2023-03-04T14:49:51;101061.44;;;20.98;41.26
36304;BME280;22335;49.800;8.596;2023-03-04T14:56:43;101062.69;;;20.88;41.40
36304;BME280;22335;49.800;8.596;2023-03-04T15:03:28;101019.19;;;20.62;41.29
36304;BME280;22335;49.800;8.596;2023-03-04T15:10:12;101047.88;;;20.96;41.32
36304;BME280;22335;49.800;8.596;2023-03-04T15:16:57;100977.28;;;20.46;41.49
36304;BME280;22335;49.800;8.596;2023-03-04T15:23:42;101040.56;;;20.91;41.32
36304;BME280;22335;49.800;8.596;2023-03-04T15:30:28;101036.22;;;20.82;41.64
36304;BME280;22335;49.800;8.596;2023-03-04T15:37:19;101021.72;;;20.76;41.52
36304;BME280;22335;49.800;8.596;2023-03-04T15:44:04;101037.53;;;20.63;41.94
36304;BME280;22335;49.800;8.596;2023-03-04T15:50:50;101037.78;;;20.70;41.83
36304;BME280;22335;49.800;8.596;2023-03-04T15:57:38;101032.72;;;20.72;41.56
36304;BME280;22335;49.800;8.596;2023-03-04T16:04:22;101023.25;;;20.65;41.16
36304;BME280;22335;49.800;8.596;2023-03-04T16:11:05;101020.78;;;20.42;41.16
36304;BME280;22335;49.800;8.596;2023-03-04T16:17:53;101025.69;;;20.45;41.30
36304;BME280;22335;49.800;8.596;2023-03-04T16:24:37;101013.19;;;20.31;41.62
36304;BME280;22335;49.800;8.596;2023-03-04T16:31:21;101010.84;;;20.62;41.49
36304;BME280;22335;49.800;8.596;2023-03-04T16:38:16;101018.06;;;20.96;41.00
36304;BME280;22335;49.800;8.596;2023-03-04T16:45:09;101011.88;;;21.12;40.94
36304;BME280;22335;49.800;8.596;2023-03-04T16:51:58;101015.88;;;21.23;41.06
36304;BME280;22335;49.800;8.596;2023-03-04T16:58:44;101007.75;;;21.30;41.05
36304;BME280;22335;49.800;8.596;2023-03-04T17:05:31;101003.97;;;21.35;41.05
36304;BME280;22335;49.800;8.596;2023-03-04T17:12:14;100935.44;;;20.85;41.66
36304;BME280;22335;49.800;8.596;2023-03-04T17:18:59;101017.25;;;21.17;41.11
36304;BME280;22335;49.800;8.596;2023-03-04T17:25:43;101019.28;;;21.08;40.42
36304;BME280;22335;49.800;8.596;2023-03-04T17:32:26;100917.25;;;20.75;40.81
36304;BME280;22335;49.800;8.596;2023-03-04T17:39:14;101022.56;;;21.43;41.37
36304;BME280;22335;49.800;8.596;2023-03-04T17:46:01;101023.84;;;21.46;41.88
36304;BME280;22335;49.800;8.596;2023-03-04T17:52:46;101028.13;;;21.55;42.55
36304;BME280;22335;49.800;8.596;2023-03-04T17:59:31;101029.09;;;21.59;42.57
36304;BME280;22335;49.800;8.596;2023-03-04T18:06:14;101022.84;;;21.62;42.60
36304;BME280;22335;49.800;8.596;2023-03-04T18:12:58;101010.28;;;21.56;42.90
36304;BME280;22335;49.800;8.596;2023-03-04T18:19:43;101012.97;;;21.65;42.79
36304;BME280;22335;49.800;8.596;2023-03-04T18:26:27;100931.25;;;21.24;42.93
36304;BME280;22335;49.800;8.596;2023-03-04T18:33:11;100984.06;;;21.57;43.05
36304;BME280;22335;49.800;8.596;2023-03-04T18:39:55;101005.44;;;21.66;43.25
36304;BME280;22335;49.800;8.596;2023-03-04T18:46:41;101008.56;;;21.76;43.29
36304;BME280;22335;49.800;8.596;2023-03-04T18:53:28;101010.44;;;21.72;43.37
36304;BME280;22335;49.800;8.596;2023-03-04T19:00:16;101001.72;;;21.74;43.57
36304;BME280;22335;49.800;8.596;2023-03-04T19:07:01;100989.44;;;21.87;43.92
36304;BME280;22335;49.800;8.596;2023-03-04T19:13:44;100988.16;;;21.84;43.46
36304;BME280;22335;49.800;8.596;2023-03-04T19:20:29;100989.66;;;21.94;44.20
36304;BME280;22335;49.800;8.596;2023-03-04T19:27:13;100930.97;;;21.50;43.99
36304;BME280;22335;49.800;8.596;2023-03-04T19:33:57;100952.28;;;21.58;44.31
36304;BME280;22335;49.800;8.596;2023-03-04T19:40:42;100971.34;;;21.81;44.17
36304;BME280;22335;49.800;8.596;2023-03-04T19:47:27;100996.03;;;21.95;44.70
36304;BME280;22335;49.800;8.596;2023-03-04T19:54:10;100928.06;;;21.59;44.31
36304;BME280;22335;49.800;8.596;2023-03-04T20:00:55;100996.94;;;21.99;44.19
36304;BME280;22335;49.800;8.596;2023-03-04T20:07:39;100930.59;;;21.52;44.49
36304;BME280;22335;49.800;8.596;2023-03-04T20:14:24;100947.66;;;21.62;44.44
36304;BME280;22335;49.800;8.596;2023-03-04T20:21:09;100989.66;;;21.94;44.53
36304;BME280;22335;49.800;8.596;2023-03-04T20:27:53;100977.22;;;22.04;44.61
36304;BME280;22335;49.800;8.596;2023-03-04T20:34:37;100983.50;;;21.88;43.59
36304;BME280;22335;49.800;8.596;2023-03-04T20:41:23;100990.56;;;21.37;42.72
36304;BME280;22335;49.800;8.596;2023-03-04T20:48:07;100910.72;;;20.71;42.42
36304;BME280;22335;49.800;8.596;2023-03-04T20:54:50;100989.47;;;20.96;42.49
36304;BME280;22335;49.800;8.596;2023-03-04T21:01:36;100985.44;;;20.93;42.03
36304;BME280;22335;49.800;8.596;2023-03-04T21:08:21;100985.94;;;20.87;42.33
36304;BME280;22335;49.800;8.596;2023-03-04T21:15:05;100991.94;;;20.77;42.11
36304;BME280;22335;49.800;8.596;2023-03-04T21:21:51;100978.53;;;20.79;42.10
36304;BME280;22335;49.800;8.596;2023-03-04T21:28:36;100975.75;;;20.79;41.94
36304;BME280;22335;49.800;8.596;2023-03-04T21:35:19;100860.34;;;19.97;42.12
36304;BME280;22335;49.800;8.596;2023-03-04T21:42:07;100971.25;;;20.65;42.13
36304;BME280;22335;49.800;8.596;2023-03-04T21:48:50;100979.47;;;20.62;42.14
36304;BME280;22335;49.800;8.596;2023-03-04T21:55:34;100965.38;;;20.67;41.87
36304;BME280;22335;49.800;8.596;2023-03-04T22:02:21;100949.50;;;20.46;42.09
36304;BME280;22335;49.800;8.596;2023-03-04T22:09:05;100964.97;;;20.56;42.09
36304;BME280;22335;49.800;8.596;2023-03-04T22:15:48;100963.34;;;20.55;42.01
36304;BME280;22335;49.800;8.596;2023-03-04T22:22:33;100961.50;;;20.59;41.93
36304;BME280;22335;49.800;8.596;2023-03-04T22:29:17;100947.84;;;20.54;41.84
36304;BME280;22335;49.800;8.596;2023-03-04T22:36:03;100951.75;;;20.53;41.78
36304;BME280;22335;49.800;8.596;2023-03-04T22:42:48;100952.09;;;20.52;41.80
36304;BME280;22335;49.800;8.596;2023-03-04T22:49:32;100950.66;;;20.45;41.96
36304;BME280;22335;49.800;8.596;2023-03-04T22:56:17;100944.06;;;20.50;42.04
36304;BME280;22335;49.800;8.596;2023-03-04T23:03:02;100948.81;;;20.49;41.77
36304;BME280;22335;49.800;8.596;2023-03-04T23:09:46;100875.13;;;20.10;41.85
36304;BME280;22335;49.800;8.596;2023-03-04T23:16:30;100937.78;;;20.41;41.67
36304;BME280;22335;49.800;8.596;2023-03-04T23:23:18;100935.06;;;20.53;41.54
36304;BME280;22335;49.800;8.596;2023-03-04T23:30:03;100940.16;;;20.51;41.64
36304;BME280;22335;49.800;8.596;2023-03-04T23:36:47;100934.28;;;20.53;41.48
36304;BME280;22335;49.800;8.596;2023-03-04T23:43:32;100673.00;;;18.78;41.77
36304;BME280;22335;49.800;8.596;2023-03-04T23:50:16;100932.00;;;20.46;41.58
36304;BME280;22335;49.800;8.596;2023-03-04T23:57:00;100925.16;;;20.43;41.56
